sensor_id;sensor_type;location;lat;lon;timestamp;temperature;humidity
43607;DHT22;29197;44.788;10.366;2023-04-24T00:01:02;19.20;99.90
43607;DHT22;29197;44.788;10.366;2023-04-24T00:03:56;19.20;99.90
43607;DHT22;29197;44.788;10.366;2023-04-24T00:06:46;19.10;99.90
43607;DHT22;29197;44.788;10.366;2023-04-24T00:09:40;19.10;99.90
43607;DHT22;29197;44.788;10.366;2023-04-24T00:12:29;19.00;99.90
43607;DHT22;29197;44.788;10.366;2023-04-24T00:15:17;19.00;99.90
43607;DHT22;29197;44.788;10.366;2023-04-24T00:18:06;19.10;99.90
43607;DHT22;29197;44.788;10.366;2023-04-24T00:20:56;19.00;99.90
43607;DHT22;29197;44.788;10.366;2023-04-24T00:23:44;18.90;99.90
43607;DHT22;29197;44.788;10.366;2023-04-24T00:26:33;18.60;99.90
43607;DHT22;29197;44.788;10.366;2023-04-24T00:29:31;18.70;99.90
43607;DHT22;29197;44.788;10.366;2023-04-24T00:32:19;18.90;99.90
43607;DHT22;29197;44.788;10.366;2023-04-24T00:35:08;19.00;99.90
43607;DHT22;29197;44.788;10.366;2023-04-24T00:37:58;19.00;99.90
43607;DHT22;29197;44.788;10.366;2023-04-24T00:40:47;19.00;99.90
43607;DHT22;29197;44.788;10.366;2023-04-24T00:43:36;19.00;99.90
43607;DHT22;29197;44.788;10.366;2023-04-24T00:46:25;19.00;99.90
43607;DHT22;29197;44.788;10.366;2023-04-24T00:49:14;19.00;99.90
43607;DHT22;29197;44.788;10.366;2023-04-24T00:52:02;18.90;99.90
43607;DHT22;29197;44.788;10.366;2023-04-24T00:54:56;18.90;99.90
43607;DHT22;29197;44.788;10.366;2023-04-24T00:57:45;18.80;99.90
43607;DHT22;29197;44.788;10.366;2023-04-24T01:00:35;18.60;99.90
43607;DHT22;29197;44.788;10.366;2023-04-24T01:03:28;18.60;99.90
43607;DHT22;29197;44.788;10.366;2023-04-24T01:06:19;18.60;99.90
43607;DHT22;29197;44.788;10.366;2023-04-24T01:09:07;18.70;99.90
43607;DHT22;29197;44.788;10.366;2023-04-24T01:11:58;18.50;99.90
43607;DHT22;29197;44.788;10.366;2023-04-24T01:14:47;18.40;99.90
43607;DHT22;29197;44.788;10.366;2023-04-24T01:17:36;17.50;99.90
43607;DHT22;29197;44.788;10.366;2023-04-24T01:20:25;18.40;99.90
43607;DHT22;29197;44.788;10.366;2023-04-24T01:23:15;18.50;99.90
43607;DHT22;29197;44.788;10.366;2023-04-24T01:26:04;18.50;99.90
43607;DHT22;29197;44.788;10.366;2023-04-24T01:28:53;18.40;99.90
43607;DHT22;29197;44.788;10.366;2023-04-24T01:31:41;18.40;99.90
43607;DHT22;29197;44.788;10.366;2023-04-24T01:34:31;18.30;99.90
43607;DHT22;29197;44.788;10.366;2023-04-24T01:37:19;18.30;99.90
43607;DHT22;29197;44.788;10.366;2023-04-24T01:40:10;18.30;99.90
43607;DHT22;29197;44.788;10.366;2023-04-24T01:42:58;18.30;99.90
43607;DHT22;29197;44.788;10.366;2023-04-24T01:45:47;18.30;99.90
43607;DHT22;29197;44.788;10.366;2023-04-24T01:48:35;18.20;99.90
43607;DHT22;29197;44.788;10.366;2023-04-24T01:51:24;18.00;99.90
43607;DHT22;29197;44.788;10.366;2023-04-24T01:54:12;18.00;99.90
43607;DHT22;29197;44.788;10.366;2023-04-24T01:57:02;18.00;99.90
43607;DHT22;29197;44.788;10.366;2023-04-24T01:59:51;17.90;99.90
43607;DHT22;29197;44.788;10.366;2023-04-24T02:02:40;17.80;99.90
43607;DHT22;29197;44.788;10.366;2023-04-24T02:05:32;17.40;99.90
43607;DHT22;29197;44.788;10.366;2023-04-24T02:08:21;17.20;99.90
43607;DHT22;29197;44.788;10.366;2023-04-24T02:11:09;16.90;99.90
43607;DHT22;29197;44.788;10.366;2023-04-24T02:13:59;17.10;99.90
43607;DHT22;29197;44.788;10.366;2023-04-24T02:16:48;17.00;99.90
43607;DHT22;29197;44.788;10.366;2023-04-24T02:19:36;17.10;99.90
43607;DHT22;29197;44.788;10.366;2023-04-24T02:22:25;17.10;99.90
43607;DHT22;29197;44.788;10.366;2023-04-24T02:25:13;17.00;99.90
43607;DHT22;29197;44.788;10.366;2023-04-24T02:28:01;17.00;99.90
43607;DHT22;29197;44.788;10.366;2023-04-24T02:30:52;16.90;99.90
43607;DHT22;29197;44.788;10.366;2023-04-24T02:33:40;16.60;99.90
43607;DHT22;29197;44.788;10.366;2023-04-24T02:36:29;16.60;99.90
43607;DHT22;29197;44.788;10.366;2023-04-24T02:39:18;16.80;99.90
43607;DHT22;29197;44.788;10.366;2023-04-24T02:42:07;16.60;99.90
43607;DHT22;29197;44.788;10.366;2023-04-24T02:44:55;16.70;99.90
43607;DHT22;29197;44.788;10.366;2023-04-24T02:47:45;16.90;99.90
43607;DHT22;29197;44.788;10.366;2023-04-24T02:50:33;17.00;99.90
43607;DHT22;29197;44.788;10.366;2023-04-24T02:53:22;17.20;99.90
43607;DHT22;29197;44.788;10.366;2023-04-24T02:56:11;17.30;99.90
43607;DHT22;29197;44.788;10.366;2023-04-24T02:59:00;17.40;99.90
43607;DHT22;29197;44.788;10.366;2023-04-24T03:01:48;17.50;99.90
43607;DHT22;29197;44.788;10.366;2023-04-24T03:04:38;17.50;99.90
43607;DHT22;29197;44.788;10.366;2023-04-24T03:07:27;17.60;99.90
43607;DHT22;29197;44.788;10.366;2023-04-24T03:10:16;17.60;99.90
43607;DHT22;29197;44.788;10.366;2023-04-24T03:13:04;17.50;99.90
43607;DHT22;29197;44.788;10.366;2023-04-24T03:15:53;17.50;99.90
43607;DHT22;29197;44.788;10.366;2023-04-24T03:18:42;17.50;99.90
43607;DHT22;29197;44.788;10.366;2023-04-24T03:21:31;17.60;99.90
43607;DHT22;29197;44.788;10.366;2023-04-24T03:24:20;17.60;99.90
43607;DHT22;29197;44.788;10.366;2023-04-24T03:27:09;17.60;99.90
43607;DHT22;29197;44.788;10.366;2023-04-24T03:29:58;17.60;99.90
43607;DHT22;29197;44.788;10.366;2023-04-24T03:32:47;17.60;99.90
43607;DHT22;29197;44.788;10.366;2023-04-24T03:35:36;17.50;99.90
43607;DHT22;29197;44.788;10.366;2023-04-24T03:38:26;17.30;99.90
43607;DHT22;29197;44.788;10.366;2023-04-24T03:41:15;17.30;99.90
43607;DHT22;29197;44.788;10.366;2023-04-24T03:44:03;17.40;99.90
43607;DHT22;29197;44.788;10.366;2023-04-24T03:46:52;17.50;99.90
43607;DHT22;29197;44.788;10.366;2023-04-24T03:49:40;17.60;99.90
43607;DHT22;29197;44.788;10.366;2023-04-24T03:52:29;17.60;99.90
43607;DHT22;29197;44.788;10.366;2023-04-24T03:55:19;17.60;99.90
43607;DHT22;29197;44.788;10.366;2023-04-24T03:58:07;17.60;99.90
43607;DHT22;29197;44.788;10.366;2023-04-24T04:00:56;17.70;99.90
43607;DHT22;29197;44.788;10.366;2023-04-24T04:03:45;17.70;99.90
43607;DHT22;29197;44.788;10.366;2023-04-24T04:06:34;17.70;99.90
43607;DHT22;29197;44.788;10.366;2023-04-24T04:09:23;17.70;99.90
43607;DHT22;29197;44.788;10.366;2023-04-24T04:12:13;17.60;99.90
43607;DHT22;29197;44.788;10.366;2023-04-24T04:15:01;17.60;99.90
43607;DHT22;29197;44.788;10.366;2023-04-24T04:17:50;17.50;99.90
43607;DHT22;29197;44.788;10.366;2023-04-24T04:20:39;17.00;99.90
43607;DHT22;29197;44.788;10.366;2023-04-24T04:23:27;17.10;99.90
43607;DHT22;29197;44.788;10.366;2023-04-24T04:26:16;17.30;99.90
43607;DHT22;29197;44.788;10.366;2023-04-24T04:29:07;17.40;99.90
43607;DHT22;29197;44.788;10.366;2023-04-24T04:31:55;17.50;99.90
43607;DHT22;29197;44.788;10.366;2023-04-24T04:34:44;17.40;99.90
43607;DHT22;29197;44.788;10.366;2023-04-24T04:37:33;17.40;99.90
43607;DHT22;29197;44.788;10.366;2023-04-24T04:40:22;17.30;99.90
43607;DHT22;29197;44.788;10.366;2023-04-24T04:43:10;17.20;99.90
43607;DHT22;29197;44.788;10.366;2023-04-24T04:46:01;17.30;99.90
43607;DHT22;29197;44.788;10.366;2023-04-24T04:48:50;17.20;99.90
43607;DHT22;29197;44.788;10.366;2023-04-24T04:51:39;17.10;99.90
43607;DHT22;29197;44.788;10.366;2023-04-24T04:54:29;17.00;99.90
43607;DHT22;29197;44.788;10.366;2023-04-24T05:00:08;16.40;99.90
43607;DHT22;29197;44.788;10.366;2023-04-24T05:03:00;16.30;99.90
43607;DHT22;29197;44.788;10.366;2023-04-24T05:06:06;16.50;99.90
43607;DHT22;29197;44.788;10.366;2023-04-24T05:08:55;16.60;99.90
43607;DHT22;29197;44.788;10.366;2023-04-24T05:11:44;16.70;99.90
43607;DHT22;29197;44.788;10.366;2023-04-24T05:14:33;16.80;99.90
43607;DHT22;29197;44.788;10.366;2023-04-24T05:17:22;16.70;99.90
43607;DHT22;29197;44.788;10.366;2023-04-24T05:20:12;16.60;99.90
43607;DHT22;29197;44.788;10.366;2023-04-24T05:23:00;16.60;99.90
43607;DHT22;29197;44.788;10.366;2023-04-24T05:25:49;16.70;99.90
43607;DHT22;29197;44.788;10.366;2023-04-24T05:28:37;16.80;99.90
43607;DHT22;29197;44.788;10.366;2023-04-24T05:31:26;16.70;99.90
43607;DHT22;29197;44.788;10.366;2023-04-24T05:34:14;16.20;99.90
43607;DHT22;29197;44.788;10.366;2023-04-24T05:37:05;15.40;99.90
43607;DHT22;29197;44.788;10.366;2023-04-24T05:39:56;16.40;99.90
43607;DHT22;29197;44.788;10.366;2023-04-24T05:42:45;16.00;99.90
43607;DHT22;29197;44.788;10.366;2023-04-24T05:45:34;15.80;99.90
43607;DHT22;29197;44.788;10.366;2023-04-24T05:48:23;16.10;99.90
43607;DHT22;29197;44.788;10.366;2023-04-24T05:51:12;16.40;99.90
43607;DHT22;29197;44.788;10.366;2023-04-24T05:54:01;16.20;99.90
43607;DHT22;29197;44.788;10.366;2023-04-24T05:56:50;16.00;99.90
43607;DHT22;29197;44.788;10.366;2023-04-24T05:59:40;16.20;99.90
43607;DHT22;29197;44.788;10.366;2023-04-24T06:02:29;16.30;99.90
43607;DHT22;29197;44.788;10.366;2023-04-24T06:08:09;16.80;99.90
43607;DHT22;29197;44.788;10.366;2023-04-24T06:10:59;16.90;99.90
43607;DHT22;29197;44.788;10.366;2023-04-24T06:13:50;17.00;99.90
43607;DHT22;29197;44.788;10.366;2023-04-24T06:16:41;17.10;99.90
43607;DHT22;29197;44.788;10.366;2023-04-24T06:19:30;17.30;99.90
43607;DHT22;29197;44.788;10.366;2023-04-24T06:22:18;17.40;99.90
43607;DHT22;29197;44.788;10.366;2023-04-24T06:25:07;17.40;99.90
43607;DHT22;29197;44.788;10.366;2023-04-24T06:27:57;17.40;99.90
43607;DHT22;29197;44.788;10.366;2023-04-24T06:30:46;17.50;99.90
43607;DHT22;29197;44.788;10.366;2023-04-24T06:33:35;17.60;99.90
43607;DHT22;29197;44.788;10.366;2023-04-24T06:36:23;17.50;99.90
43607;DHT22;29197;44.788;10.366;2023-04-24T06:39:12;17.50;99.90
43607;DHT22;29197;44.788;10.366;2023-04-24T06:42:00;17.50;99.90
43607;DHT22;29197;44.788;10.366;2023-04-24T06:44:50;17.40;99.90
43607;DHT22;29197;44.788;10.366;2023-04-24T06:47:39;17.10;99.90
43607;DHT22;29197;44.788;10.366;2023-04-24T06:50:27;17.10;99.90
43607;DHT22;29197;44.788;10.366;2023-04-24T06:53:16;17.40;99.90
43607;DHT22;29197;44.788;10.366;2023-04-24T06:56:05;17.50;99.90
43607;DHT22;29197;44.788;10.366;2023-04-24T06:58:53;17.80;99.90
43607;DHT22;29197;44.788;10.366;2023-04-24T07:01:43;17.80;99.90
43607;DHT22;29197;44.788;10.366;2023-04-24T07:04:32;17.80;99.90
43607;DHT22;29197;44.788;10.366;2023-04-24T07:07:21;18.00;99.90
43607;DHT22;29197;44.788;10.366;2023-04-24T07:10:11;18.20;99.90
43607;DHT22;29197;44.788;10.366;2023-04-24T07:13:00;18.40;99.90
43607;DHT22;29197;44.788;10.366;2023-04-24T07:15:48;18.60;99.90
43607;DHT22;29197;44.788;10.366;2023-04-24T07:18:39;18.80;99.90
43607;DHT22;29197;44.788;10.366;2023-04-24T07:21:27;18.80;99.90
43607;DHT22;29197;44.788;10.366;2023-04-24T07:27:09;19.30;99.90
43607;DHT22;29197;44.788;10.366;2023-04-24T07:29:58;19.40;99.90
43607;DHT22;29197;44.788;10.366;2023-04-24T07:32:47;19.50;99.90
43607;DHT22;29197;44.788;10.366;2023-04-24T07:35:37;19.60;99.90
43607;DHT22;29197;44.788;10.366;2023-04-24T07:38:25;19.40;99.90
43607;DHT22;29197;44.788;10.366;2023-04-24T07:41:14;19.30;99.90
43607;DHT22;29197;44.788;10.366;2023-04-24T07:44:02;19.40;99.90
43607;DHT22;29197;44.788;10.366;2023-04-24T07:46:51;19.40;99.90
43607;DHT22;29197;44.788;10.366;2023-04-24T07:49:40;19.20;99.90
43607;DHT22;29197;44.788;10.366;2023-04-24T07:52:31;19.30;99.90
43607;DHT22;29197;44.788;10.366;2023-04-24T07:55:19;19.30;99.90
43607;DHT22;29197;44.788;10.366;2023-04-24T07:58:12;19.30;99.90
43607;DHT22;29197;44.788;10.366;2023-04-24T08:01:00;19.40;99.90
43607;DHT22;29197;44.788;10.366;2023-04-24T08:03:48;19.20;99.90
43607;DHT22;29197;44.788;10.366;2023-04-24T08:06:37;19.30;99.90
43607;DHT22;29197;44.788;10.366;2023-04-24T08:09:27;19.20;99.90
43607;DHT22;29197;44.788;10.366;2023-04-24T08:12:16;19.20;99.90
43607;DHT22;29197;44.788;10.366;2023-04-24T08:15:05;20.60;99.90
43607;DHT22;29197;44.788;10.366;2023-04-24T08:17:54;19.40;99.90
43607;DHT22;29197;44.788;10.366;2023-04-24T08:20:45;19.50;99.90
43607;DHT22;29197;44.788;10.366;2023-04-24T08:23:33;19.50;99.90
43607;DHT22;29197;44.788;10.366;2023-04-24T08:26:23;19.50;99.90
43607;DHT22;29197;44.788;10.366;2023-04-24T08:29:12;19.50;99.90
43607;DHT22;29197;44.788;10.366;2023-04-24T08:32:00;19.70;99.90
43607;DHT22;29197;44.788;10.366;2023-04-24T08:34:49;19.70;99.90
43607;DHT22;29197;44.788;10.366;2023-04-24T08:37:39;19.80;99.90
43607;DHT22;29197;44.788;10.366;2023-04-24T08:40:29;19.90;99.90
43607;DHT22;29197;44.788;10.366;2023-04-24T08:43:21;19.90;99.90
43607;DHT22;29197;44.788;10.366;2023-04-24T08:46:13;19.90;99.90
43607;DHT22;29197;44.788;10.366;2023-04-24T08:49:01;20.00;99.90
43607;DHT22;29197;44.788;10.366;2023-04-24T08:51:50;20.10;99.90
43607;DHT22;29197;44.788;10.366;2023-04-24T08:54:41;20.20;99.90
43607;DHT22;29197;44.788;10.366;2023-04-24T08:57:31;20.10;99.90
43607;DHT22;29197;44.788;10.366;2023-04-24T09:00:22;20.20;99.90
43607;DHT22;29197;44.788;10.366;2023-04-24T09:03:10;20.30;99.90
43607;DHT22;29197;44.788;10.366;2023-04-24T09:06:00;20.20;99.90
43607;DHT22;29197;44.788;10.366;2023-04-24T09:08:51;20.20;99.90
43607;DHT22;29197;44.788;10.366;2023-04-24T09:11:43;20.30;99.90
43607;DHT22;29197;44.788;10.366;2023-04-24T09:14:31;20.40;99.90
43607;DHT22;29197;44.788;10.366;2023-04-24T09:17:24;20.40;99.90
43607;DHT22;29197;44.788;10.366;2023-04-24T09:20:15;20.50;99.90
43607;DHT22;29197;44.788;10.366;2023-04-24T09:23:04;20.60;99.90
43607;DHT22;29197;44.788;10.366;2023-04-24T09:25:55;20.60;99.90
43607;DHT22;29197;44.788;10.366;2023-04-24T09:28:43;20.70;99.90
43607;DHT22;29197;44.788;10.366;2023-04-24T09:31:33;20.80;99.90
43607;DHT22;29197;44.788;10.366;2023-04-24T10:02:36;21.50;99.90
43607;DHT22;29197;44.788;10.366;2023-04-24T10:05:28;21.10;99.90
43607;DHT22;29197;44.788;10.366;2023-04-24T10:08:17;21.00;99.90
43607;DHT22;29197;44.788;10.366;2023-04-24T10:11:06;21.00;99.90
43607;DHT22;29197;44.788;10.366;2023-04-24T10:13:55;20.90;99.90
43607;DHT22;29197;44.788;10.366;2023-04-24T10:16:44;20.90;99.90
43607;DHT22;29197;44.788;10.366;2023-04-24T10:19:35;21.20;99.90
43607;DHT22;29197;44.788;10.366;2023-04-24T10:22:25;21.40;99.90
43607;DHT22;29197;44.788;10.366;2023-04-24T10:25:18;21.40;99.90
43607;DHT22;29197;44.788;10.366;2023-04-24T10:28:08;21.60;99.90
43607;DHT22;29197;44.788;10.366;2023-04-24T10:30:58;23.40;99.90
43607;DHT22;29197;44.788;10.366;2023-04-24T10:33:48;21.60;99.90
43607;DHT22;29197;44.788;10.366;2023-04-24T10:36:42;21.70;99.90
43607;DHT22;29197;44.788;10.366;2023-04-24T10:39:31;22.00;99.90
43607;DHT22;29197;44.788;10.366;2023-04-24T10:42:20;22.20;99.90
43607;DHT22;29197;44.788;10.366;2023-04-24T10:45:16;22.30;99.90
43607;DHT22;29197;44.788;10.366;2023-04-24T10:48:07;22.20;99.90
43607;DHT22;29197;44.788;10.366;2023-04-24T10:51:01;22.20;99.90
43607;DHT22;29197;44.788;10.366;2023-04-24T10:53:51;22.10;99.90
43607;DHT22;29197;44.788;10.366;2023-04-24T10:56:40;22.20;99.90
43607;DHT22;29197;44.788;10.366;2023-04-24T10:59:34;22.50;99.90
43607;DHT22;29197;44.788;10.366;2023-04-24T11:02:36;22.60;99.90
43607;DHT22;29197;44.788;10.366;2023-04-24T11:05:50;22.80;99.90
43607;DHT22;29197;44.788;10.366;2023-04-24T11:08:42;22.90;99.90
43607;DHT22;29197;44.788;10.366;2023-04-24T11:11:32;23.10;99.90
43607;DHT22;29197;44.788;10.366;2023-04-24T11:14:21;23.30;99.90
43607;DHT22;29197;44.788;10.366;2023-04-24T11:17:28;23.50;99.90
43607;DHT22;29197;44.788;10.366;2023-04-24T11:20:17;23.70;99.90
43607;DHT22;29197;44.788;10.366;2023-04-24T11:23:12;23.80;99.90
43607;DHT22;29197;44.788;10.366;2023-04-24T11:26:10;23.90;99.90
43607;DHT22;29197;44.788;10.366;2023-04-24T11:29:07;24.20;99.90
43607;DHT22;29197;44.788;10.366;2023-04-24T11:31:56;24.20;99.90
43607;DHT22;29197;44.788;10.366;2023-04-24T11:35:05;24.30;99.90
43607;DHT22;29197;44.788;10.366;2023-04-24T11:37:55;24.50;99.90
43607;DHT22;29197;44.788;10.366;2023-04-24T11:40:47;24.60;99.90
43607;DHT22;29197;44.788;10.366;2023-04-24T11:43:36;24.70;99.90
43607;DHT22;29197;44.788;10.366;2023-04-24T11:46:30;24.90;99.90
43607;DHT22;29197;44.788;10.366;2023-04-24T11:49:19;25.10;99.90
43607;DHT22;29197;44.788;10.366;2023-04-24T11:54:58;25.50;99.90
43607;DHT22;29197;44.788;10.366;2023-04-24T11:57:48;25.60;99.90
43607;DHT22;29197;44.788;10.366;2023-04-24T12:00:37;25.60;99.90
43607;DHT22;29197;44.788;10.366;2023-04-24T12:03:27;25.70;99.90
43607;DHT22;29197;44.788;10.366;2023-04-24T12:06:16;25.80;99.90
43607;DHT22;29197;44.788;10.366;2023-04-24T12:37:55;27.50;99.90
43607;DHT22;29197;44.788;10.366;2023-04-24T12:40:44;27.50;99.90
43607;DHT22;29197;44.788;10.366;2023-04-24T12:43:33;27.60;99.90
43607;DHT22;29197;44.788;10.366;2023-04-24T12:46:21;27.40;99.90
43607;DHT22;29197;44.788;10.366;2023-04-24T12:49:10;27.50;99.90
43607;DHT22;29197;44.788;10.366;2023-04-24T12:51:58;27.60;99.90
43607;DHT22;29197;44.788;10.366;2023-04-24T12:54:48;27.70;99.90
43607;DHT22;29197;44.788;10.366;2023-04-24T12:57:38;27.60;99.90
43607;DHT22;29197;44.788;10.366;2023-04-24T13:00:27;27.70;99.90
43607;DHT22;29197;44.788;10.366;2023-04-24T13:03:15;27.30;99.90
43607;DHT22;29197;44.788;10.366;2023-04-24T13:06:04;27.60;99.90
43607;DHT22;29197;44.788;10.366;2023-04-24T13:08:53;27.60;99.90
43607;DHT22;29197;44.788;10.366;2023-04-24T13:11:43;27.50;99.90
43607;DHT22;29197;44.788;10.366;2023-04-24T13:14:32;27.30;99.90
43607;DHT22;29197;44.788;10.366;2023-04-24T13:17:21;27.00;99.90
43607;DHT22;29197;44.788;10.366;2023-04-24T13:20:10;26.50;99.90
43607;DHT22;29197;44.788;10.366;2023-04-24T13:22:59;26.10;99.90
43607;DHT22;29197;44.788;10.366;2023-04-24T13:25:47;26.10;99.90
43607;DHT22;29197;44.788;10.366;2023-04-24T13:28:38;26.50;99.90
43607;DHT22;29197;44.788;10.366;2023-04-24T14:05:16;26.40;99.90
43607;DHT22;29197;44.788;10.366;2023-04-24T14:08:05;26.10;99.90
43607;DHT22;29197;44.788;10.366;2023-04-24T14:19:23;25.50;99.90
43607;DHT22;29197;44.788;10.366;2023-04-24T14:22:12;25.30;99.90
43607;DHT22;29197;44.788;10.366;2023-04-24T14:25:00;25.30;99.90
43607;DHT22;29197;44.788;10.366;2023-04-24T14:27:49;24.40;99.90
43607;DHT22;29197;44.788;10.366;2023-04-24T14:30:37;25.20;99.90
43607;DHT22;29197;44.788;10.366;2023-04-24T14:33:27;25.00;99.90
43607;DHT22;29197;44.788;10.366;2023-04-24T14:36:18;24.70;99.90
43607;DHT22;29197;44.788;10.366;2023-04-24T14:39:06;24.50;99.90
43607;DHT22;29197;44.788;10.366;2023-04-24T14:41:55;24.30;99.90
43607;DHT22;29197;44.788;10.366;2023-04-24T15:04:28;23.50;99.90
43607;DHT22;29197;44.788;10.366;2023-04-24T15:07:18;23.50;99.90
43607;DHT22;29197;44.788;10.366;2023-04-24T15:10:09;23.40;99.90
43607;DHT22;29197;44.788;10.366;2023-04-24T15:15:47;23.00;99.90
43607;DHT22;29197;44.788;10.366;2023-04-24T15:18:35;23.20;99.90
43607;DHT22;29197;44.788;10.366;2023-04-24T15:21:24;23.50;99.90
43607;DHT22;29197;44.788;10.366;2023-04-24T15:24:13;23.50;99.60
43607;DHT22;29197;44.788;10.366;2023-04-24T15:27:03;23.50;99.90
43607;DHT22;29197;44.788;10.366;2023-04-24T15:29:51;23.30;99.90
43607;DHT22;29197;44.788;10.366;2023-04-24T15:32:40;23.20;99.90
43607;DHT22;29197;44.788;10.366;2023-04-24T15:35:29;22.60;99.90
43607;DHT22;29197;44.788;10.366;2023-04-24T15:38:17;22.30;99.90
43607;DHT22;29197;44.788;10.366;2023-04-24T15:41:06;22.10;99.90
43607;DHT22;29197;44.788;10.366;2023-04-24T15:43:56;21.80;99.90
43607;DHT22;29197;44.788;10.366;2023-04-24T15:46:44;21.70;99.90
43607;DHT22;29197;44.788;10.366;2023-04-24T15:49:33;21.80;99.90
43607;DHT22;29197;44.788;10.366;2023-04-24T15:52:22;21.70;99.90
43607;DHT22;29197;44.788;10.366;2023-04-24T15:55:10;21.70;99.90
43607;DHT22;29197;44.788;10.366;2023-04-24T15:57:59;21.80;99.90
43607;DHT22;29197;44.788;10.366;2023-04-24T16:00:49;21.70;99.90
43607;DHT22;29197;44.788;10.366;2023-04-24T16:03:40;21.90;99.90
43607;DHT22;29197;44.788;10.366;2023-04-24T16:06:28;21.90;99.90
43607;DHT22;29197;44.788;10.366;2023-04-24T16:09:18;21.90;99.90
43607;DHT22;29197;44.788;10.366;2023-04-24T16:12:06;21.90;99.90
43607;DHT22;29197;44.788;10.366;2023-04-24T16:14:56;21.70;99.90
43607;DHT22;29197;44.788;10.366;2023-04-24T16:17:46;21.60;99.90
43607;DHT22;29197;44.788;10.366;2023-04-24T16:20:35;21.50;99.90
43607;DHT22;29197;44.788;10.366;2023-04-24T16:23:24;21.50;99.90
43607;DHT22;29197;44.788;10.366;2023-04-24T16:26:12;21.50;99.90
43607;DHT22;29197;44.788;10.366;2023-04-24T16:29:01;19.20;99.90
43607;DHT22;29197;44.788;10.366;2023-04-24T16:31:50;21.30;99.90
43607;DHT22;29197;44.788;10.366;2023-04-24T16:34:40;21.50;99.90
43607;DHT22;29197;44.788;10.366;2023-04-24T16:37:29;21.40;99.90
43607;DHT22;29197;44.788;10.366;2023-04-24T16:40:18;21.40;99.90
43607;DHT22;29197;44.788;10.366;2023-04-24T16:43:06;21.40;99.90
43607;DHT22;29197;44.788;10.366;2023-04-24T16:45:56;21.20;99.90
43607;DHT22;29197;44.788;10.366;2023-04-24T16:48:46;21.00;99.90
43607;DHT22;29197;44.788;10.366;2023-04-24T16:51:36;20.90;99.90
43607;DHT22;29197;44.788;10.366;2023-04-24T16:54:25;20.90;99.90
43607;DHT22;29197;44.788;10.366;2023-04-24T16:57:15;20.80;99.90
43607;DHT22;29197;44.788;10.366;2023-04-24T17:00:05;20.70;99.90
43607;DHT22;29197;44.788;10.366;2023-04-24T17:02:54;20.70;99.90
43607;DHT22;29197;44.788;10.366;2023-04-24T17:05:43;20.70;99.90
43607;DHT22;29197;44.788;10.366;2023-04-24T17:08:34;20.60;99.90
43607;DHT22;29197;44.788;10.366;2023-04-24T17:11:22;20.70;99.90
43607;DHT22;29197;44.788;10.366;2023-04-24T17:14:11;20.70;99.90
43607;DHT22;29197;44.788;10.366;2023-04-24T17:16:59;20.70;99.90
43607;DHT22;29197;44.788;10.366;2023-04-24T17:19:48;20.60;99.90
43607;DHT22;29197;44.788;10.366;2023-04-24T17:22:37;20.50;99.90
43607;DHT22;29197;44.788;10.366;2023-04-24T17:25:27;20.50;99.90
43607;DHT22;29197;44.788;10.366;2023-04-24T17:28:24;20.40;99.90
43607;DHT22;29197;44.788;10.366;2023-04-24T17:31:13;20.60;99.90
43607;DHT22;29197;44.788;10.366;2023-04-24T17:34:01;20.50;99.90
43607;DHT22;29197;44.788;10.366;2023-04-24T17:36:50;20.40;99.90
43607;DHT22;29197;44.788;10.366;2023-04-24T17:39:39;20.20;99.90
43607;DHT22;29197;44.788;10.366;2023-04-24T17:42:28;20.20;99.90
43607;DHT22;29197;44.788;10.366;2023-04-24T17:45:17;20.20;99.90
43607;DHT22;29197;44.788;10.366;2023-04-24T17:48:06;20.10;99.90
43607;DHT22;29197;44.788;10.366;2023-04-24T17:50:54;20.10;99.90
43607;DHT22;29197;44.788;10.366;2023-04-24T17:53:43;20.10;99.90
43607;DHT22;29197;44.788;10.366;2023-04-24T17:56:31;20.00;99.90
43607;DHT22;29197;44.788;10.366;2023-04-24T17:59:22;20.00;99.90
43607;DHT22;29197;44.788;10.366;2023-04-24T18:02:11;20.00;99.90
43607;DHT22;29197;44.788;10.366;2023-04-24T18:04:59;19.90;99.90
43607;DHT22;29197;44.788;10.366;2023-04-24T18:07:48;19.80;99.90
43607;DHT22;29197;44.788;10.366;2023-04-24T18:10:37;20.00;99.90
43607;DHT22;29197;44.788;10.366;2023-04-24T18:13:25;20.00;99.90
43607;DHT22;29197;44.788;10.366;2023-04-24T18:16:15;19.90;99.90
43607;DHT22;29197;44.788;10.366;2023-04-24T18:19:04;19.60;99.90
43607;DHT22;29197;44.788;10.366;2023-04-24T18:21:53;19.60;99.90
43607;DHT22;29197;44.788;10.366;2023-04-24T18:24:41;19.50;99.90
43607;DHT22;29197;44.788;10.366;2023-04-24T18:27:30;19.40;99.90
43607;DHT22;29197;44.788;10.366;2023-04-24T18:30:19;19.50;99.90
43607;DHT22;29197;44.788;10.366;2023-04-24T18:33:10;19.50;99.90
43607;DHT22;29197;44.788;10.366;2023-04-24T18:35:59;19.60;99.90
43607;DHT22;29197;44.788;10.366;2023-04-24T18:38:49;19.60;99.90
43607;DHT22;29197;44.788;10.366;2023-04-24T18:41:38;19.60;99.90
43607;DHT22;29197;44.788;10.366;2023-04-24T18:44:26;19.50;99.90
43607;DHT22;29197;44.788;10.366;2023-04-24T18:47:15;19.60;99.90
43607;DHT22;29197;44.788;10.366;2023-04-24T18:50:06;19.50;99.90
43607;DHT22;29197;44.788;10.366;2023-04-24T18:52:55;19.30;99.90
43607;DHT22;29197;44.788;10.366;2023-04-24T19:12:39;19.00;99.90
43607;DHT22;29197;44.788;10.366;2023-04-24T19:52:05;19.00;99.90
43607;DHT22;29197;44.788;10.366;2023-04-24T19:54:54;19.00;99.90
43607;DHT22;29197;44.788;10.366;2023-04-24T19:57:43;18.90;99.90
43607;DHT22;29197;44.788;10.366;2023-04-24T20:00:32;18.80;99.90
43607;DHT22;29197;44.788;10.366;2023-04-24T20:03:22;18.70;99.90
43607;DHT22;29197;44.788;10.366;2023-04-24T20:06:20;18.70;99.90
43607;DHT22;29197;44.788;10.366;2023-04-24T20:09:08;18.80;99.90
43607;DHT22;29197;44.788;10.366;2023-04-24T20:11:58;18.80;99.90
43607;DHT22;29197;44.788;10.366;2023-04-24T20:14:48;18.80;99.90
43607;DHT22;29197;44.788;10.366;2023-04-24T20:17:36;18.80;99.90
43607;DHT22;29197;44.788;10.366;2023-04-24T20:20:25;18.70;99.90
43607;DHT22;29197;44.788;10.366;2023-04-24T20:23:14;18.70;99.90
43607;DHT22;29197;44.788;10.366;2023-04-24T20:26:02;18.70;99.90
43607;DHT22;29197;44.788;10.366;2023-04-24T20:28:51;18.70;99.90
43607;DHT22;29197;44.788;10.366;2023-04-24T20:31:41;18.40;99.90
43607;DHT22;29197;44.788;10.366;2023-04-24T20:34:30;18.30;99.90
43607;DHT22;29197;44.788;10.366;2023-04-24T20:37:19;18.30;99.90
43607;DHT22;29197;44.788;10.366;2023-04-24T20:40:08;18.20;99.90